Startpagina
METAR-TAF:

METAR-TAF

Vliegvelden :

Sunan International Airport

Pyongyang, Noord-Korea

breedte: 39-02N, lengte: 125-47E, hoogte: 36 m

METAR: ontbreekt

Tijdstip: 08:29 (23:29 UTC)

Verwachting

Dit bericht is 19 uur en het 19 minuten geleden gemaakt, om 04:10 UTC
Verwachting geldig van 13 om 06 UTC tot 14 om 06 UTC
Wind 10 kt uit het zuidzuidwesten
Zicht: 4000 m
Geheel bewolkt op 1700 ft
lichte regen
Tijdelijke
van 13 om 08 UTC tot 13 om 15 UTC
Zicht: 2000 m
lichte sneeuw
Wijzigt naar
van 13 om 14 UTC tot 13 om 16 UTC
Wind 12 kt uit het noordwesten
Zicht: 8000 m

TAF: ZKPY 130410Z 1306/1406 21005MPS 4000 -RA OVC017 TX03/1306Z TNM04/1322Z TEMPO 1308/1315 2000 -SN BECMG 1314/1316 32006MPS 8000 NSC

Waarnemingen en weersverwachtingen van meer dan 4000 vliegvelden (METAR en TAF).

De beschikbare stations zijn de gele en rode punten op de kaart.

Ga met uw muis naar het station om de naam te zien.

Klik dan om waarnemingen en weersverwachtingen te zien.

kaart wijzigen: klik op de groene knoppen met een zwart kruis om in te zoomen, op de groene knop met een streepje om uit te zoomen of op de groene pijlen voor aangrenzende kaarten.


METAR-TAF: